General Aviation Weather

Text Reports

Enter one or more of the following location identifiers separated by a space:

Zip Code, Four-Character ICAO or Three-Character IATA airport codes.

METAR - Aviation Routine Weather Report
TJMZ - Mayaguez, Puerto Rico
Updated at 7:50 PM GMT on January 13, 2017 (3:50 PM AST):
METAR TJMZ 131950Z 06015KT 10SM SCT030 27/18 A3003
TAF - Terminal Area Forecast
TJMZ - Mayaguez, Puerto Rico
Updated at 7:50 PM GMT on January 13, 2017 (3:50 PM AST):
No TAF is currently available for this location.
Decoded:
No decoded TAF is available.
PIREP - Pilot Weather Report
TJMZ - Mayaguez, Puerto Rico
Updated at 7:50 PM GMT on January 13, 2017 (3:50 PM AST):
No PIREP is currently available for this location.
AIRMET - Airmens Meteorological Information
TJMZ - Mayaguez, Puerto Rico
Updated at 7:50 PM GMT on January 13, 2017 (3:50 PM AST):
No AIRMET is currently available for this location.
SIGMET - Significant Meteorological Information
TJMZ - Mayaguez, Puerto Rico
Updated at 7:50 PM GMT on January 13, 2017 (3:50 PM AST):
No SIGMET is currently available for this location.
NOTAM - Notice to Airmen
TJMZ - Mayaguez, Puerto Rico
Updated at 7:50 PM GMT on January 13, 2017 (3:50 PM AST):
No NOTAM is currently available for this location.
Forecast Area
TJMZ - Mayaguez, Puerto Rico
Updated at 7:50 PM GMT on January 13, 2017 (3:50 PM AST):
No NOTAM is currently available for this location.
Aviation Weather Maps